Decoded Metar for KSMO (SANTA MONICA in CA, USA) (IATA:SMO) | Meteo·Mobile Aviation Weather
aviador You're here:

KSMO Decoded Metar

SANTA MONICA in CA, USA
Report Time2019-01-19 05:51:00
UTC Time2019-01-19 06:12:57
Flight Rules ifr IFR
Wind030° at 03 kt
W.Decomp.*RWY 03: 2.9 kt HW 0.8 kt LCW
W.Rank030° ranks 12
Current wind is below 030° avg. (3.6)
Visibility6437 m
Phenomena:Haze
Clouds:Overcast 006 Hf
Expected CloudBase > 800 ft AGL from Temp-Dew spread
Ceiling600 ft
Temp14°C (ISA -1)
Dew Point12°C (88% RH)
AAT13.6°C
QNH1025 hPa
Density Alt-105 ft
Elevation187 ft
Report Wrong Elevation
Raw Report
KSMO 190551Z AUTO 03003KT 4SM HZ OVC006 14/12 A3027 RMK AO2 SLP250
T01440117 10178 20139 53005=

Extra information for KSMO:More info

Metar Taf Metar & Taf Last 4 Metars F.Rules Stats Wind Profile Meteogram Temp Stats Airport Information Weather charts Add Link Nearby VenuesMetar ALERT Operation Metar Decoded Social comments

AIRNAV info for KSMO